createdAt,value
2023-02-19T00:01:47.702Z,1.17
2023-02-19T00:04:18.040Z,1.45
2023-02-19T00:06:46.402Z,1.35
2023-02-19T00:09:16.215Z,1.39
2023-02-19T00:11:44.635Z,1.55
2023-02-19T00:14:15.764Z,1.65
2023-02-19T00:16:42.958Z,1.71
2023-02-19T00:19:15.044Z,1.64
2023-02-19T00:21:42.955Z,1.54
2023-02-19T00:24:12.157Z,1.58
2023-02-19T00:26:41.006Z,1.74
2023-02-19T00:29:12.488Z,1.95
2023-02-19T00:31:40.527Z,1.86
2023-02-19T00:34:09.630Z,1.85
2023-02-19T00:36:38.790Z,2.62
2023-02-19T00:39:07.615Z,2.53
2023-02-19T00:41:34.896Z,2.72
2023-02-19T00:44:05.122Z,3.17
2023-02-19T00:46:38.503Z,4.20
2023-02-19T00:49:07.923Z,4.61
2023-02-19T00:51:37.572Z,5.81
2023-02-19T00:54:06.162Z,6.95
2023-02-19T00:56:34.070Z,8.03
2023-02-19T00:59:01.763Z,8.20
2023-02-19T01:01:29.068Z,8.48
2023-02-19T01:03:56.460Z,8.79
2023-02-19T01:06:24.529Z,8.97
2023-02-19T01:08:52.120Z,9.16
2023-02-19T01:11:20.587Z,9.14
2023-02-19T01:13:48.489Z,9.51
2023-02-19T01:16:22.152Z,9.79
2023-02-19T01:18:49.873Z,9.66
2023-02-19T01:21:21.004Z,9.60
2023-02-19T01:23:49.641Z,9.95
2023-02-19T01:26:21.768Z,9.53
2023-02-19T01:28:49.431Z,9.66
2023-02-19T01:31:20.544Z,9.55
2023-02-19T01:33:50.466Z,9.35
2023-02-19T01:36:18.361Z,9.34
2023-02-19T01:38:46.347Z,9.40
2023-02-19T01:41:17.805Z,9.65
2023-02-19T01:44:11.606Z,9.91
2023-02-19T01:46:40.753Z,10.02
2023-02-19T01:49:08.424Z,9.90
2023-02-19T01:51:39.463Z,9.52
2023-02-19T01:54:08.801Z,9.58
2023-02-19T01:56:38.606Z,9.12
2023-02-19T01:59:07.643Z,9.03
2023-02-19T02:01:36.183Z,8.17
2023-02-19T02:04:04.379Z,7.94
2023-02-19T02:06:41.410Z,7.37
2023-02-19T02:09:28.049Z,7.24
2023-02-19T02:11:55.893Z,7.15
2023-02-19T02:14:30.021Z,7.26
2023-02-19T02:17:16.086Z,7.39
2023-02-19T02:20:08.151Z,7.12
2023-02-19T02:22:50.958Z,7.18
2023-02-19T02:25:37.061Z,6.94
2023-02-19T02:28:23.805Z,7.01
2023-02-19T02:30:56.634Z,6.91
2023-02-19T02:33:39.795Z,6.68
2023-02-19T02:36:25.499Z,6.76
2023-02-19T02:38:54.359Z,6.72
2023-02-19T02:41:22.257Z,6.55
2023-02-19T02:43:49.657Z,6.33
2023-02-19T02:46:23.751Z,6.59
2023-02-19T02:48:55.598Z,6.31
2023-02-19T02:51:31.170Z,6.22
2023-02-19T02:54:35.558Z,5.73
2023-02-19T02:57:07.120Z,5.71
2023-02-19T02:59:39.933Z,5.37
2023-02-19T03:02:18.902Z,5.49
2023-02-19T03:05:35.921Z,5.43
2023-02-19T03:08:12.993Z,5.46
2023-02-19T03:10:50.334Z,5.42
2023-02-19T03:13:47.734Z,5.52
2023-02-19T03:16:47.034Z,5.10
2023-02-19T03:19:19.414Z,5.07
2023-02-19T03:21:59.217Z,4.98
2023-02-19T03:24:55.724Z,5.03
2023-02-19T03:27:28.181Z,5.07
2023-02-19T03:29:59.439Z,5.06
2023-02-19T03:32:59.038Z,4.78
2023-02-19T03:35:34.516Z,4.85
2023-02-19T03:38:04.695Z,4.70
2023-02-19T03:40:42.370Z,4.53
2023-02-19T03:43:12.653Z,4.24
2023-02-19T03:46:01.765Z,4.22
2023-02-19T03:48:35.736Z,4.14
2023-02-19T03:51:29.001Z,4.11
2023-02-19T03:54:13.322Z,4.17
2023-02-19T03:56:53.429Z,4.08
2023-02-19T03:59:27.623Z,3.92
2023-02-19T04:02:06.545Z,4.03
2023-02-19T04:05:21.269Z,3.61
2023-02-19T04:07:52.361Z,3.84
2023-02-19T04:10:22.012Z,3.88
2023-02-19T04:13:01.874Z,3.83
2023-02-19T04:15:33.870Z,3.90
2023-02-19T04:18:07.130Z,3.74
2023-02-19T04:20:40.559Z,3.79
2023-02-19T04:23:08.072Z,3.84
2023-02-19T04:25:38.332Z,3.87
2023-02-19T04:28:05.815Z,3.78
2023-02-19T04:30:33.211Z,3.66
2023-02-19T04:33:00.929Z,3.69
2023-02-19T04:35:28.248Z,3.55
2023-02-19T04:37:55.560Z,3.58
2023-02-19T04:40:23.072Z,3.14
2023-02-19T04:42:50.405Z,3.14
2023-02-19T04:45:17.772Z,3.25
2023-02-19T04:47:45.470Z,2.99
2023-02-19T04:50:13.023Z,3.14
2023-02-19T04:52:40.307Z,3.22
2023-02-19T04:55:09.071Z,3.09
2023-02-19T04:57:36.464Z,2.95
2023-02-19T05:00:04.896Z,2.92
2023-02-19T05:02:32.606Z,3.08
2023-02-19T05:05:00.169Z,3.18
2023-02-19T05:07:27.479Z,3.00
2023-02-19T05:09:55.165Z,2.95
2023-02-19T05:12:22.452Z,2.85
2023-02-19T05:14:49.765Z,2.78
2023-02-19T05:17:17.424Z,2.86
2023-02-19T05:19:45.494Z,2.78
2023-02-19T05:22:12.816Z,2.30
2023-02-19T05:24:42.872Z,2.19
2023-02-19T05:27:10.150Z,2.24
2023-02-19T05:29:37.525Z,1.97
2023-02-19T05:32:05.285Z,1.94
2023-02-19T05:34:32.780Z,2.02
2023-02-19T05:37:00.053Z,2.11
2023-02-19T05:39:27.740Z,1.74
2023-02-19T05:41:55.322Z,1.88
2023-02-19T05:44:22.652Z,2.12
2023-02-19T05:46:50.567Z,2.31
2023-02-19T05:49:17.848Z,2.38
2023-02-19T05:51:45.379Z,2.57
2023-02-19T05:54:14.185Z,2.62
2023-02-19T05:56:42.655Z,2.55
2023-02-19T05:59:19.618Z,2.76
2023-02-19T06:01:48.295Z,2.81
2023-02-19T06:04:16.157Z,3.11
2023-02-19T06:06:43.995Z,2.90
2023-02-19T06:09:11.765Z,3.01
2023-02-19T06:11:40.253Z,3.25
2023-02-19T06:14:07.576Z,3.31
2023-02-19T06:16:34.869Z,3.38
2023-02-19T06:19:04.319Z,3.45
2023-02-19T06:21:31.955Z,3.67
2023-02-19T06:23:59.434Z,3.75
2023-02-19T06:26:27.116Z,3.75
2023-02-19T06:28:54.797Z,4.06
2023-02-19T06:31:23.217Z,4.25
2023-02-19T06:33:51.064Z,4.04
2023-02-19T06:36:23.602Z,4.14
2023-02-19T06:38:52.138Z,4.39
2023-02-19T06:41:19.823Z,4.26
2023-02-19T06:43:47.532Z,4.68
2023-02-19T06:46:15.473Z,4.97
2023-02-19T06:48:45.177Z,5.26
2023-02-19T06:51:14.535Z,5.46
2023-02-19T06:53:42.187Z,5.67
2023-02-19T06:56:33.599Z,5.80
2023-02-19T06:59:03.881Z,6.13
2023-02-19T07:01:33.756Z,6.33
2023-02-19T07:04:02.371Z,6.66
2023-02-19T07:06:30.265Z,6.88
2023-02-19T07:08:59.640Z,6.95
2023-02-19T07:11:29.262Z,7.15
2023-02-19T07:13:57.108Z,7.41
2023-02-19T07:16:25.497Z,7.44
2023-02-19T07:18:53.677Z,7.47
2023-02-19T07:21:21.580Z,7.75
2023-02-19T07:23:49.185Z,7.89
2023-02-19T07:26:19.240Z,8.20
2023-02-19T07:28:49.184Z,8.52
2023-02-19T07:31:18.455Z,9.01
2023-02-19T07:33:46.436Z,9.20
2023-02-19T07:36:16.699Z,9.32
2023-02-19T07:38:44.955Z,9.59
2023-02-19T07:41:12.835Z,9.91
2023-02-19T07:43:41.689Z,10.28
2023-02-19T07:46:12.434Z,10.47
2023-02-19T07:48:41.613Z,10.61
2023-02-19T07:51:14.036Z,11.01
2023-02-19T07:53:41.815Z,11.07
2023-02-19T07:56:14.299Z,11.36
2023-02-19T07:58:42.003Z,11.71
2023-02-19T08:01:14.059Z,11.88
2023-02-19T08:03:42.988Z,12.04
2023-02-19T08:06:11.705Z,11.96
2023-02-19T08:08:40.282Z,11.70
2023-02-19T08:11:26.894Z,11.85
2023-02-19T08:13:54.311Z,11.95
2023-02-19T08:16:36.925Z,12.11
2023-02-19T08:19:09.698Z,12.18
2023-02-19T08:21:37.694Z,12.24
2023-02-19T08:24:05.433Z,12.46
2023-02-19T08:26:33.573Z,12.50
2023-02-19T08:29:01.561Z,12.70
2023-02-19T08:31:29.003Z,12.80
2023-02-19T08:33:56.828Z,12.97
2023-02-19T08:36:24.736Z,12.80
2023-02-19T08:38:52.202Z,12.92
2023-02-19T08:41:19.643Z,13.22
2023-02-19T08:43:47.471Z,13.42
2023-02-19T08:46:15.367Z,13.51
2023-02-19T08:48:42.709Z,13.63
2023-02-19T08:51:12.385Z,13.36
2023-02-19T08:53:40.936Z,13.49
2023-02-19T08:56:11.859Z,13.77
2023-02-19T08:58:40.177Z,13.57
2023-02-19T09:01:12.837Z,13.36
2023-02-19T09:03:41.198Z,13.66
2023-02-19T09:06:12.384Z,13.88
2023-02-19T09:08:39.892Z,14.13
2023-02-19T09:11:07.574Z,14.26
2023-02-19T09:13:34.970Z,14.43
2023-02-19T09:16:06.437Z,14.60
2023-02-19T09:18:34.416Z,14.47
2023-02-19T09:21:06.196Z,14.49
2023-02-19T09:23:35.775Z,14.87
2023-02-19T09:26:06.980Z,15.06
2023-02-19T09:28:34.953Z,14.70
2023-02-19T09:31:06.795Z,14.67
2023-02-19T09:33:34.857Z,14.70
2023-02-19T09:36:03.396Z,14.57
2023-02-19T09:38:31.160Z,14.59
2023-02-19T09:41:06.038Z,14.38
2023-02-19T09:43:34.231Z,14.50
2023-02-19T09:46:09.907Z,14.67
2023-02-19T09:48:37.284Z,14.75
2023-02-19T09:51:05.436Z,14.89
2023-02-19T09:53:44.493Z,14.75
2023-02-19T09:56:12.410Z,14.89
2023-02-19T09:58:56.395Z,15.08
2023-02-19T10:01:29.146Z,15.47
2023-02-19T10:03:56.908Z,16.06
2023-02-19T10:06:26.637Z,16.35
2023-02-19T10:09:00.128Z,16.43
2023-02-19T10:11:28.134Z,16.37
2023-02-19T10:14:10.915Z,16.16
2023-02-19T10:16:43.996Z,16.18
2023-02-19T10:19:13.050Z,16.30
2023-02-19T10:21:41.821Z,16.55
2023-02-19T10:24:18.653Z,17.14
2023-02-19T10:26:46.377Z,17.04
2023-02-19T10:29:13.815Z,17.49
2023-02-19T10:31:41.156Z,16.81
2023-02-19T10:34:18.881Z,17.06
2023-02-19T10:36:51.314Z,16.55
2023-02-19T10:39:21.916Z,16.90
2023-02-19T10:41:51.282Z,16.55
2023-02-19T10:44:24.483Z,16.41
2023-02-19T10:46:55.536Z,16.52
2023-02-19T10:49:30.375Z,16.64
2023-02-19T10:52:02.654Z,16.69
2023-02-19T10:54:35.607Z,16.98
2023-02-19T10:57:15.247Z,16.96
2023-02-19T10:59:51.090Z,17.40
2023-02-19T11:02:20.737Z,17.47
2023-02-19T11:05:16.427Z,17.82
2023-02-19T11:07:51.022Z,17.97
2023-02-19T11:10:34.620Z,18.09
2023-02-19T11:13:04.563Z,17.81
2023-02-19T11:15:32.264Z,17.37
2023-02-19T11:18:05.315Z,17.63
2023-02-19T11:20:33.692Z,17.88
2023-02-19T11:23:15.800Z,17.70
2023-02-19T11:25:49.230Z,18.12
2023-02-19T11:28:36.865Z,17.69
2023-02-19T11:31:19.938Z,18.53
2023-02-19T11:34:26.324Z,18.88
2023-02-19T11:37:09.780Z,19.05
2023-02-19T11:39:38.327Z,19.15
2023-02-19T11:42:13.076Z,18.96
2023-02-19T11:44:49.498Z,18.89
2023-02-19T11:47:41.623Z,19.26
2023-02-19T11:50:43.267Z,19.11
2023-02-19T11:53:34.719Z,19.28
2023-02-19T11:56:16.334Z,19.65
2023-02-19T11:59:06.447Z,19.69
2023-02-19T12:01:45.877Z,19.54
2023-02-19T12:04:38.144Z,19.94
2023-02-19T12:07:37.926Z,20.27
2023-02-19T12:10:19.553Z,19.88
2023-02-19T12:12:51.706Z,19.56
2023-02-19T12:15:26.615Z,18.20
2023-02-19T12:18:19.593Z,18.55
2023-02-19T12:21:14.505Z,18.96
2023-02-19T12:24:01.270Z,19.48
2023-02-19T12:26:38.099Z,19.38
2023-02-19T12:29:43.123Z,19.39
2023-02-19T12:32:29.089Z,19.53
2023-02-19T12:35:32.956Z,19.69
2023-02-19T12:38:15.686Z,19.51
2023-02-19T12:41:01.840Z,20.20
2023-02-19T12:43:32.215Z,20.52
2023-02-19T12:46:02.187Z,20.54
2023-02-19T12:48:39.108Z,20.93
2023-02-19T12:51:27.592Z,20.65
2023-02-19T12:54:04.221Z,21.32
2023-02-19T12:56:36.637Z,21.10
2023-02-19T12:59:09.358Z,21.00
2023-02-19T13:02:05.650Z,20.76
2023-02-19T13:04:56.015Z,21.34
2023-02-19T13:07:29.106Z,20.75
2023-02-19T13:10:04.516Z,21.00
2023-02-19T13:12:39.610Z,21.54
2023-02-19T13:15:17.987Z,21.32
2023-02-19T13:17:52.441Z,20.97
2023-02-19T13:20:32.804Z,20.86
2023-02-19T13:23:24.702Z,21.26
2023-02-19T13:26:05.818Z,21.62
2023-02-19T13:28:50.416Z,21.76
2023-02-19T13:31:37.087Z,21.32
2023-02-19T13:34:16.769Z,21.84
2023-02-19T13:36:44.867Z,22.24
2023-02-19T13:39:17.569Z,22.22
2023-02-19T13:42:01.681Z,21.96
2023-02-19T13:44:31.958Z,21.90
2023-02-19T13:47:01.067Z,21.26
2023-02-19T13:49:28.423Z,21.80
2023-02-19T13:52:01.340Z,21.67
2023-02-19T13:54:40.313Z,20.92
2023-02-19T13:57:22.996Z,20.54
2023-02-19T13:59:52.024Z,21.20
2023-02-19T14:02:28.293Z,21.45
2023-02-19T14:04:57.636Z,21.93
2023-02-19T14:07:28.081Z,22.78
2023-02-19T14:09:55.834Z,23.94
2023-02-19T14:12:33.413Z,24.56
2023-02-19T14:15:39.551Z,24.60
2023-02-19T14:18:43.896Z,24.87
2023-02-19T14:21:38.242Z,25.91
2023-02-19T14:24:11.300Z,26.91
2023-02-19T14:26:40.594Z,25.63
2023-02-19T14:29:10.806Z,25.73
2023-02-19T14:31:39.104Z,26.92
2023-02-19T14:34:19.666Z,26.99
2023-02-19T14:36:54.998Z,27.37
2023-02-19T14:39:32.054Z,28.52
2023-02-19T14:42:03.185Z,29.21
2023-02-19T14:44:35.635Z,28.79
2023-02-19T14:47:09.431Z,29.78
2023-02-19T14:49:58.476Z,27.47
2023-02-19T14:52:33.560Z,28.57
2023-02-19T14:55:04.223Z,27.08
2023-02-19T14:57:38.487Z,26.62
2023-02-19T15:00:40.149Z,26.89
2023-02-19T15:03:26.082Z,24.56
2023-02-19T15:05:58.784Z,23.62
2023-02-19T15:08:34.363Z,22.71
2023-02-19T15:11:04.461Z,21.95
2023-02-19T15:13:32.190Z,21.24
2023-02-19T15:15:59.995Z,20.98
2023-02-19T15:18:30.096Z,21.21
2023-02-19T15:21:03.864Z,20.83
2023-02-19T15:23:34.480Z,20.71
2023-02-19T15:26:02.616Z,20.24
2023-02-19T15:28:33.106Z,20.04
2023-02-19T15:31:00.864Z,19.65
2023-02-19T15:33:28.677Z,18.88
2023-02-19T15:35:59.919Z,18.94
2023-02-19T15:38:29.033Z,18.63
2023-02-19T15:40:57.997Z,18.40
2023-02-19T15:43:28.220Z,18.33
2023-02-19T15:46:04.258Z,18.31
2023-02-19T15:48:39.369Z,17.97
2023-02-19T15:51:14.537Z,17.92
2023-02-19T15:53:48.940Z,17.71
2023-02-19T15:56:28.339Z,17.33
2023-02-19T15:59:07.170Z,17.08
2023-02-19T16:01:39.311Z,17.10
2023-02-19T16:04:14.347Z,16.45
2023-02-19T16:06:57.054Z,16.49
2023-02-19T16:09:39.993Z,16.50
2023-02-19T16:12:24.966Z,16.26
2023-02-19T16:14:52.738Z,16.24
2023-02-19T16:17:23.336Z,16.25
2023-02-19T16:20:03.575Z,16.27
2023-02-19T16:22:41.038Z,16.28
2023-02-19T16:25:25.540Z,16.38
2023-02-19T16:27:53.666Z,16.30
2023-02-19T16:30:34.054Z,16.23
2023-02-19T16:33:36.612Z,16.02
2023-02-19T16:36:23.736Z,15.88
2023-02-19T16:39:09.569Z,15.81
2023-02-19T16:41:40.056Z,15.89
2023-02-19T16:44:27.561Z,15.82
2023-02-19T16:46:59.705Z,15.77
2023-02-19T16:49:27.375Z,15.45
2023-02-19T16:51:54.933Z,15.43
2023-02-19T16:54:22.305Z,15.48
2023-02-19T16:56:49.988Z,15.62
2023-02-19T16:59:17.419Z,15.84
2023-02-19T17:01:44.829Z,15.84
2023-02-19T17:04:15.921Z,15.90
2023-02-19T17:06:44.587Z,15.75
2023-02-19T17:09:12.279Z,15.60
2023-02-19T17:11:40.343Z,15.59
2023-02-19T17:14:09.493Z,15.57
2023-02-19T17:16:40.584Z,15.64
2023-02-19T17:19:18.212Z,15.10
2023-02-19T17:21:47.438Z,14.85
2023-02-19T17:24:15.828Z,14.99
2023-02-19T17:26:43.295Z,14.84
2023-02-19T17:29:14.432Z,14.65
2023-02-19T17:31:41.964Z,14.78
2023-02-19T17:34:09.498Z,14.46
2023-02-19T17:36:38.266Z,14.36
2023-02-19T17:39:08.937Z,14.30
2023-02-19T17:41:36.650Z,14.13
2023-02-19T17:44:03.994Z,14.27
2023-02-19T17:46:31.457Z,14.00
2023-02-19T17:48:59.288Z,13.74
2023-02-19T17:51:26.685Z,13.83
2023-02-19T17:53:53.995Z,13.68
2023-02-19T17:56:25.683Z,13.47
2023-02-19T17:58:57.067Z,13.43
2023-02-19T18:01:25.002Z,13.57
2023-02-19T18:03:52.895Z,13.65
2023-02-19T18:06:20.774Z,13.37
2023-02-19T18:08:52.722Z,13.17
2023-02-19T18:11:24.593Z,13.26
2023-02-19T18:13:52.455Z,13.36
2023-02-19T18:16:20.194Z,13.27
2023-02-19T18:18:47.786Z,13.33
2023-02-19T18:21:15.112Z,13.21
2023-02-19T18:23:42.764Z,13.29
2023-02-19T18:26:11.368Z,13.15
2023-02-19T18:28:38.823Z,13.36
2023-02-19T18:31:06.939Z,13.26
2023-02-19T18:33:35.462Z,13.20
2023-02-19T18:36:03.523Z,13.04
2023-02-19T18:38:31.196Z,12.78
2023-02-19T18:40:58.990Z,12.72
2023-02-19T18:43:26.452Z,12.29
2023-02-19T18:45:54.299Z,12.32
2023-02-19T18:48:22.974Z,12.49
2023-02-19T18:50:50.404Z,12.43
2023-02-19T18:53:18.145Z,12.20
2023-02-19T18:55:45.600Z,12.14
2023-02-19T18:58:12.869Z,12.12
2023-02-19T19:00:40.667Z,12.09
2023-02-19T19:03:08.110Z,12.13
2023-02-19T19:05:35.410Z,12.03
2023-02-19T19:08:03.407Z,11.90
2023-02-19T19:10:31.069Z,11.97
2023-02-19T19:12:58.785Z,11.96
2023-02-19T19:15:26.778Z,11.76
2023-02-19T19:17:55.163Z,11.81
2023-02-19T19:20:23.570Z,11.82
2023-02-19T19:22:52.839Z,11.61
2023-02-19T19:25:21.425Z,11.57
2023-02-19T19:27:50.828Z,11.67
2023-02-19T19:30:20.396Z,11.53
2023-02-19T19:32:52.468Z,11.45
2023-02-19T19:35:21.514Z,11.12
2023-02-19T19:37:49.962Z,11.08
2023-02-19T19:40:18.692Z,10.87
2023-02-19T19:42:46.673Z,11.13
2023-02-19T19:45:15.585Z,10.60
2023-02-19T19:47:43.179Z,10.63
2023-02-19T19:50:13.333Z,10.69
2023-02-19T19:52:40.673Z,10.48
2023-02-19T19:55:08.985Z,10.56
2023-02-19T19:57:39.038Z,10.53
2023-02-19T20:00:09.461Z,10.50
2023-02-19T20:02:39.806Z,10.60
2023-02-19T20:05:07.765Z,10.45
2023-02-19T20:07:35.218Z,10.31
2023-02-19T20:10:02.831Z,10.19
2023-02-19T20:12:30.675Z,10.18
2023-02-19T20:14:58.114Z,10.24
2023-02-19T20:17:27.596Z,10.24
2023-02-19T20:19:55.380Z,10.32
2023-02-19T20:22:22.786Z,10.10
2023-02-19T20:24:52.080Z,10.17
2023-02-19T20:27:21.129Z,10.13
2023-02-19T20:29:48.906Z,10.45
2023-02-19T20:32:20.214Z,10.52
2023-02-19T20:34:48.743Z,10.76
2023-02-19T20:37:16.296Z,11.01
2023-02-19T20:39:43.655Z,11.20
2023-02-19T20:42:11.470Z,11.38
2023-02-19T20:44:38.906Z,11.53
2023-02-19T20:47:06.575Z,11.47
2023-02-19T20:49:34.657Z,11.52
2023-02-19T20:52:06.936Z,11.51
2023-02-19T20:54:36.042Z,11.54
2023-02-19T20:57:05.543Z,11.58
2023-02-19T20:59:35.614Z,11.54
2023-02-19T21:02:08.966Z,11.66
2023-02-19T21:04:38.829Z,11.43
2023-02-19T21:07:07.216Z,11.64
2023-02-19T21:09:34.627Z,11.53
2023-02-19T21:12:01.976Z,11.59
2023-02-19T21:14:29.755Z,11.71
2023-02-19T21:16:57.136Z,11.46
2023-02-19T21:19:24.607Z,11.49
2023-02-19T21:21:52.547Z,11.56
2023-02-19T21:24:20.034Z,11.42
2023-02-19T21:26:47.498Z,11.39
2023-02-19T21:29:19.213Z,11.24
2023-02-19T21:31:49.076Z,11.34
2023-02-19T21:34:19.412Z,11.33
2023-02-19T21:36:47.318Z,11.18
2023-02-19T21:39:17.229Z,11.28
2023-02-19T21:41:45.110Z,11.30
2023-02-19T21:44:12.761Z,11.27
2023-02-19T21:46:40.532Z,11.37
2023-02-19T21:49:08.239Z,11.12
2023-02-19T21:51:38.313Z,11.32
2023-02-19T21:54:06.980Z,11.12
2023-02-19T21:56:36.497Z,11.09
2023-02-19T21:59:04.360Z,11.04
2023-02-19T22:01:38.887Z,10.98
2023-02-19T22:04:07.498Z,11.00
2023-02-19T22:06:35.166Z,11.06
2023-02-19T22:09:03.837Z,11.03
2023-02-19T22:11:31.507Z,10.82
2023-02-19T22:13:58.936Z,10.80
2023-02-19T22:16:26.725Z,10.78
2023-02-19T22:18:57.060Z,10.74
2023-02-19T22:21:27.436Z,10.57
2023-02-19T22:23:55.476Z,10.59
2023-02-19T22:26:29.399Z,10.59
2023-02-19T22:28:58.439Z,10.61
2023-02-19T22:31:26.974Z,10.64
2023-02-19T22:33:55.749Z,10.61
2023-02-19T22:36:26.361Z,10.51
2023-02-19T22:38:54.323Z,10.56
2023-02-19T22:41:21.658Z,10.46
2023-02-19T22:43:50.259Z,10.43
2023-02-19T22:46:20.635Z,10.40
2023-02-19T22:48:47.935Z,10.34
2023-02-19T22:51:18.395Z,10.27
2023-02-19T22:53:47.134Z,10.22
2023-02-19T22:56:16.284Z,10.20
2023-02-19T22:58:45.713Z,10.21
2023-02-19T23:01:14.694Z,10.19
2023-02-19T23:03:49.608Z,10.13
2023-02-19T23:06:20.876Z,10.11
2023-02-19T23:08:49.507Z,10.06
2023-02-19T23:11:28.006Z,9.83
2023-02-19T23:13:55.735Z,9.95
2023-02-19T23:16:23.398Z,9.81
2023-02-19T23:18:50.914Z,9.85
2023-02-19T23:21:19.420Z,9.77
2023-02-19T23:23:47.029Z,9.79
2023-02-19T23:26:15.661Z,9.72
2023-02-19T23:28:44.873Z,9.71
2023-02-19T23:31:13.814Z,9.68
2023-02-19T23:33:41.379Z,9.68
2023-02-19T23:36:10.560Z,9.67
2023-02-19T23:38:38.345Z,9.62
2023-02-19T23:41:10.706Z,9.51
2023-02-19T23:43:39.638Z,9.47
2023-02-19T23:46:07.499Z,9.52
2023-02-19T23:48:35.007Z,9.46
2023-02-19T23:51:02.619Z,9.51
2023-02-19T23:53:29.950Z,9.46
2023-02-19T23:55:57.250Z,9.54
2023-02-19T23:58:24.896Z,9.51
